OIHH  Hamadan  Airport

Hamadan, Iran

Add Bookmark
ICAO OIHH
IATA HDM
Type Airport
Status Operational
Latitude
34° 52' 9" N
34.869202
Longitude
48° 33' 9" E
48.552502
Local (GMT +4.5 ) UTC
Sep 1, 2016 02:12 am Aug 31, 2016 21:42
Sunrise-Sunset Local UTC
Begin Civil Twilight 06:22 am 01:52
Sunrise 06:47 am 02:17
Sunset 07:43 pm 15:13
End Civil Twilight 08:09 pm 15:39
VFR
VFR
MVFR
MVFR
IFR
IFR
LIFR
LIFR
Unknown
Unavailable

Current Weather

METAR Observed VFR
OIHH 312052Z 12004KT CAVOK 23/01 Q1017 Wed, Aug 31, 2016 @ 20:52 UTC
(50 Minutes ago)
Visual Flight Rules
Wind Visibility Conditions
120° at 4 knots (7 kph) 10 km or more
  • No significant weather
Temperatures Readings Precipitation
Current Temp
23°C
73°F
Dewpoint
1°C
34°F
Humidity 23%
Altimeter 30.03" Hg
Sea Level Pressure 1,017 mb
Field Elevation
1,757 m
5,764 ft
None Recorded

Additional weather within a 92.6km radius of OIHH

Map ICAO Location
OIHM 69.5km S/SE (160°)
VFR
VFR
MVFR
MVFR
IFR
IFR
LIFR
LIFR
Unknown
Unavailable
-
-

CheckWX.com is intended as a tool to help pilots better visualize weather data. It is not intended as a substitute for an official weather briefing obtained from a Flight Service Station. CheckWX.com does not meet the FAA requirements for an official pre-flight weather briefing. Therefore, it's important that pilots still call and obtain an official FSS pre-flight weather briefing.

© 2007-2016 CheckWX.com
21:42:13 UTC